createdAt,value
2022-09-06T00:01:38.840Z,100.00
2022-09-06T00:04:05.763Z,100.00
2022-09-06T00:06:32.615Z,100.00
2022-09-06T00:08:59.817Z,100.00
2022-09-06T00:11:26.687Z,100.00
2022-09-06T00:13:53.462Z,100.00
2022-09-06T00:16:29.791Z,100.00
2022-09-06T00:18:57.370Z,100.00
2022-09-06T00:21:30.780Z,100.00
2022-09-06T00:23:57.695Z,100.00
2022-09-06T00:26:25.184Z,100.00
2022-09-06T00:28:51.949Z,100.00
2022-09-06T00:31:21.913Z,100.00
2022-09-06T00:33:49.027Z,100.00
2022-09-06T00:36:16.474Z,100.00
2022-09-06T00:38:43.778Z,100.00
2022-09-06T00:41:12.286Z,100.00
2022-09-06T00:43:39.318Z,100.00
2022-09-06T00:46:08.365Z,100.00
2022-09-06T00:48:36.077Z,100.00
2022-09-06T00:51:05.478Z,100.00
2022-09-06T00:53:32.680Z,100.00
2022-09-06T00:56:00.005Z,100.00
2022-09-06T00:58:27.128Z,100.00
2022-09-06T01:00:54.108Z,100.00
2022-09-06T01:03:22.477Z,100.00
2022-09-06T01:05:55.253Z,100.00
2022-09-06T01:08:28.178Z,100.00
2022-09-06T01:11:15.447Z,100.00
2022-09-06T01:13:49.386Z,100.00
2022-09-06T01:16:25.691Z,100.00
2022-09-06T01:18:59.802Z,100.00
2022-09-06T01:21:35.659Z,100.00
2022-09-06T01:24:25.461Z,100.00
2022-09-06T01:27:04.292Z,100.00
2022-09-06T01:29:45.394Z,100.00
2022-09-06T01:32:32.952Z,100.00
2022-09-06T01:35:35.102Z,100.00
2022-09-06T01:38:02.243Z,100.00
2022-09-06T01:40:29.085Z,100.00
2022-09-06T01:42:56.236Z,100.00
2022-09-06T01:45:47.891Z,100.00
2022-09-06T01:48:50.041Z,100.00
2022-09-06T01:51:44.122Z,100.00
2022-09-06T01:54:16.887Z,100.00
2022-09-06T01:56:48.958Z,100.00
2022-09-06T02:00:09.164Z,100.00
2022-09-06T02:03:19.749Z,100.00
2022-09-06T02:06:10.665Z,100.00
2022-09-06T02:08:41.050Z,100.00
2022-09-06T02:11:08.938Z,100.00
2022-09-06T02:13:50.183Z,100.00
2022-09-06T02:16:20.991Z,100.00
2022-09-06T02:19:03.865Z,100.00
2022-09-06T02:21:32.697Z,100.00
2022-09-06T02:24:01.637Z,100.00
2022-09-06T02:26:30.984Z,100.00
2022-09-06T02:28:57.785Z,100.00
2022-09-06T02:31:31.946Z,100.00
2022-09-06T02:33:58.898Z,100.00
2022-09-06T02:36:25.832Z,100.00
2022-09-06T02:38:54.273Z,100.00
2022-09-06T02:41:23.161Z,100.00
2022-09-06T02:43:50.332Z,100.00
2022-09-06T02:46:17.225Z,100.00
2022-09-06T02:48:44.028Z,100.00
2022-09-06T02:51:10.911Z,100.00
2022-09-06T02:53:37.908Z,100.00
2022-09-06T02:56:04.947Z,100.00
2022-09-06T02:58:31.796Z,100.00
2022-09-06T03:00:58.556Z,100.00
2022-09-06T03:03:25.375Z,100.00
2022-09-06T03:05:53.426Z,100.00
2022-09-06T03:08:21.959Z,100.00
2022-09-06T03:10:50.192Z,100.00
2022-09-06T03:13:17.128Z,100.00
2022-09-06T03:15:44.293Z,100.00
2022-09-06T03:18:11.345Z,100.00
2022-09-06T03:20:38.009Z,100.00
2022-09-06T03:23:04.737Z,100.00
2022-09-06T03:25:31.469Z,100.00
2022-09-06T03:27:58.113Z,100.00
2022-09-06T03:30:24.863Z,100.00
2022-09-06T03:32:51.695Z,100.00
2022-09-06T03:35:18.357Z,100.00
2022-09-06T03:37:45.062Z,100.00
2022-09-06T03:40:12.179Z,100.00
2022-09-06T03:42:38.935Z,100.00
2022-09-06T03:45:06.394Z,100.00
2022-09-06T03:47:33.482Z,100.00
2022-09-06T03:50:00.391Z,100.00
2022-09-06T03:52:27.083Z,100.00
2022-09-06T03:54:53.786Z,100.00
2022-09-06T03:57:20.484Z,100.00
2022-09-06T03:59:47.180Z,100.00
2022-09-06T04:02:14.104Z,100.00
2022-09-06T04:04:40.821Z,100.00
2022-09-06T04:07:07.492Z,100.00
2022-09-06T04:09:34.765Z,100.00
2022-09-06T04:12:01.491Z,100.00
2022-09-06T04:14:28.230Z,100.00
2022-09-06T04:16:55.218Z,100.00
2022-09-06T04:19:22.233Z,100.00
2022-09-06T04:21:49.114Z,100.00
2022-09-06T04:24:15.807Z,100.00
2022-09-06T04:26:43.369Z,100.00
2022-09-06T04:29:10.051Z,100.00
2022-09-06T04:31:36.916Z,100.00
2022-09-06T04:34:03.776Z,100.00
2022-09-06T04:36:30.521Z,100.00
2022-09-06T04:38:57.292Z,100.00
2022-09-06T04:41:24.065Z,100.00
2022-09-06T04:43:50.781Z,100.00
2022-09-06T04:46:24.956Z,100.00
2022-09-06T04:48:53.261Z,100.00
2022-09-06T04:51:20.505Z,100.00
2022-09-06T04:53:47.661Z,100.00
2022-09-06T04:56:19.723Z,100.00
2022-09-06T04:58:47.607Z,100.00
2022-09-06T05:01:14.483Z,100.00
2022-09-06T05:03:41.285Z,100.00
2022-09-06T05:06:14.620Z,100.00
2022-09-06T05:08:41.923Z,100.00
2022-09-06T05:11:09.271Z,100.00
2022-09-06T05:13:35.988Z,100.00
2022-09-06T05:16:04.916Z,100.00
2022-09-06T05:18:31.894Z,100.00
2022-09-06T05:20:59.128Z,100.00
2022-09-06T05:23:26.251Z,100.00
2022-09-06T05:25:53.335Z,100.00
2022-09-06T05:28:20.476Z,100.00
2022-09-06T05:30:47.303Z,100.00
2022-09-06T05:33:18.699Z,100.00
2022-09-06T05:35:45.509Z,100.00
2022-09-06T05:38:12.243Z,100.00
2022-09-06T05:40:39.079Z,100.00
2022-09-06T05:43:05.772Z,100.00
2022-09-06T05:45:33.314Z,100.00
2022-09-06T05:48:00.119Z,100.00
2022-09-06T05:50:26.843Z,100.00
2022-09-06T05:52:54.240Z,100.00
2022-09-06T05:55:21.051Z,100.00
2022-09-06T05:57:48.009Z,100.00
2022-09-06T06:00:14.977Z,92.94
2022-09-06T06:02:42.035Z,83.19
2022-09-06T06:05:09.048Z,73.20
2022-09-06T06:07:35.800Z,69.96
2022-09-06T06:10:02.769Z,66.22
2022-09-06T06:12:29.591Z,63.53
2022-09-06T06:14:56.222Z,59.38
2022-09-06T06:17:23.588Z,55.43
2022-09-06T06:19:50.396Z,54.40
2022-09-06T06:22:17.184Z,52.13
2022-09-06T06:24:44.632Z,49.29
2022-09-06T06:27:11.450Z,48.10
2022-09-06T06:29:38.208Z,47.87
2022-09-06T06:32:05.111Z,45.88
2022-09-06T06:34:31.944Z,48.31
2022-09-06T06:36:59.163Z,52.86
2022-09-06T06:39:26.075Z,54.63
2022-09-06T06:41:53.330Z,57.30
2022-09-06T06:44:37.286Z,57.56
2022-09-06T06:47:04.227Z,61.37
2022-09-06T06:49:31.036Z,53.43
2022-09-06T06:51:57.803Z,53.62
2022-09-06T06:54:24.514Z,47.19
2022-09-06T06:56:51.987Z,47.68
2022-09-06T06:59:18.720Z,49.07
2022-09-06T07:01:45.523Z,51.09
2022-09-06T07:04:12.587Z,51.77
2022-09-06T07:12:27.068Z,46.50
2022-09-06T07:14:54.053Z,45.98
2022-09-06T07:17:20.696Z,49.47
2022-09-06T07:22:34.024Z,48.82
2022-09-06T07:25:00.710Z,51.68
2022-09-06T07:30:14.362Z,60.52
2022-09-06T07:32:41.083Z,65.36
2022-09-06T07:35:08.246Z,66.89
2022-09-06T07:37:35.451Z,75.32
2022-09-06T07:40:03.755Z,72.04
2022-09-06T07:42:36.181Z,76.05
2022-09-06T07:45:04.947Z,84.25
2022-09-06T07:53:11.960Z,90.23
2022-09-06T07:55:42.728Z,90.11
2022-09-06T07:58:09.418Z,94.57
2022-09-06T08:00:36.265Z,91.80
2022-09-06T08:03:03.020Z,94.29
2022-09-06T08:11:03.718Z,93.85
2022-09-06T08:13:30.451Z,95.40
2022-09-06T08:16:06.046Z,97.13
2022-09-06T08:18:33.547Z,97.25
2022-09-06T08:21:16.422Z,97.22
2022-09-06T08:23:51.599Z,98.62
2022-09-06T08:26:21.173Z,92.56
2022-09-06T08:28:48.624Z,96.39
2022-09-06T08:31:17.435Z,100.00
2022-09-06T08:33:44.614Z,100.00
2022-09-06T08:36:11.534Z,96.64
2022-09-06T08:38:38.296Z,96.70
2022-09-06T08:41:31.264Z,98.45
2022-09-06T08:47:04.635Z,94.49
2022-09-06T08:49:34.094Z,96.27
2022-09-06T08:52:03.865Z,96.41
2022-09-06T08:54:42.609Z,95.08
2022-09-06T08:57:54.799Z,94.15
2022-09-06T09:00:24.912Z,92.38
2022-09-06T09:02:58.426Z,92.94
2022-09-06T09:05:31.738Z,92.67
2022-09-06T09:08:01.456Z,91.44
2022-09-06T09:10:42.665Z,92.92
2022-09-06T09:13:17.770Z,90.90
2022-09-06T09:15:44.719Z,91.94
2022-09-06T09:18:11.741Z,91.51
2022-09-06T09:20:39.005Z,93.24
2022-09-06T09:23:08.920Z,93.43
2022-09-06T09:25:39.484Z,91.52
2022-09-06T09:28:16.658Z,86.26
2022-09-06T09:30:49.896Z,84.06
2022-09-06T09:33:32.042Z,86.21
2022-09-06T09:36:01.435Z,85.84
2022-09-06T09:38:31.143Z,86.77
2022-09-06T09:41:00.739Z,87.84
2022-09-06T09:43:32.664Z,87.17
2022-09-06T09:46:25.273Z,85.42
2022-09-06T09:49:07.320Z,87.37
2022-09-06T09:51:39.028Z,90.15
2022-09-06T09:54:11.737Z,86.62
2022-09-06T09:56:47.869Z,85.95
2022-09-06T09:59:25.043Z,85.18
2022-09-06T10:01:58.460Z,83.56
2022-09-06T10:04:45.254Z,82.97
2022-09-06T10:07:15.740Z,78.19
2022-09-06T10:09:47.292Z,84.52
2022-09-06T10:12:19.667Z,81.13
2022-09-06T10:14:49.628Z,82.13
2022-09-06T10:17:30.832Z,79.46
2022-09-06T10:20:00.809Z,79.49
2022-09-06T10:22:32.330Z,79.74
2022-09-06T10:25:19.901Z,76.97
2022-09-06T10:28:10.844Z,79.04
2022-09-06T10:30:46.203Z,79.99
2022-09-06T10:33:27.959Z,70.69
2022-09-06T10:35:57.456Z,63.85
2022-09-06T10:38:45.793Z,60.47
2022-09-06T10:41:34.537Z,63.81
2022-09-06T10:44:10.528Z,63.12
2022-09-06T10:46:38.355Z,65.39
2022-09-06T10:49:06.832Z,63.54
2022-09-06T10:51:50.347Z,65.94
2022-09-06T10:54:22.382Z,65.38
2022-09-06T10:57:03.295Z,61.95
2022-09-06T10:59:39.249Z,62.87
2022-09-06T11:02:35.237Z,67.39
2022-09-06T11:10:49.840Z,60.59
2022-09-06T11:13:20.692Z,60.52
2022-09-06T11:16:18.255Z,59.80
2022-09-06T11:18:59.604Z,57.08
2022-09-06T11:22:11.099Z,57.43
2022-09-06T11:24:56.280Z,56.88
2022-09-06T11:27:33.701Z,56.23
2022-09-06T11:30:01.797Z,55.38
2022-09-06T11:32:38.943Z,58.99
2022-09-06T11:35:28.250Z,53.29
2022-09-06T11:38:25.084Z,55.02
2022-09-06T11:40:59.479Z,53.78
2022-09-06T11:43:46.008Z,53.98
2022-09-06T11:46:35.653Z,53.88
2022-09-06T11:49:11.474Z,54.50
2022-09-06T11:51:40.317Z,54.54
2022-09-06T11:54:31.503Z,54.68
2022-09-06T11:57:03.515Z,53.51
2022-09-06T11:59:36.425Z,56.29
2022-09-06T12:02:06.958Z,55.13
2022-09-06T12:05:00.402Z,51.26
2022-09-06T12:07:28.488Z,49.78
2022-09-06T12:09:55.302Z,49.80
2022-09-06T12:12:44.239Z,50.91
2022-09-06T12:15:25.356Z,54.39
2022-09-06T12:17:52.549Z,54.32
2022-09-06T12:20:54.433Z,54.46
2022-09-06T12:23:36.480Z,53.78
2022-09-06T12:26:03.152Z,53.10
2022-09-06T12:28:42.811Z,51.12
2022-09-06T12:31:38.049Z,48.00
2022-09-06T12:34:19.658Z,51.64
2022-09-06T12:36:53.707Z,48.21
2022-09-06T12:39:21.581Z,48.51
2022-09-06T12:42:00.850Z,48.95
2022-09-06T12:44:32.695Z,49.79
2022-09-06T12:47:06.916Z,49.71
2022-09-06T12:49:33.777Z,50.24
2022-09-06T12:52:10.813Z,50.12
2022-09-06T12:54:50.179Z,47.63
2022-09-06T12:57:24.496Z,48.07
2022-09-06T12:59:56.371Z,49.13
2022-09-06T13:02:34.913Z,48.97
2022-09-06T13:05:11.229Z,47.76
2022-09-06T13:07:47.680Z,47.08
2022-09-06T13:10:16.604Z,48.90
2022-09-06T13:12:45.800Z,47.21
2022-09-06T13:15:27.719Z,45.62
2022-09-06T13:17:55.774Z,43.53
2022-09-06T13:20:25.864Z,43.83
2022-09-06T13:22:54.344Z,46.71
2022-09-06T13:25:21.188Z,44.94
2022-09-06T13:27:58.301Z,46.27
2022-09-06T13:30:38.760Z,44.47
2022-09-06T13:33:07.549Z,44.65
2022-09-06T13:35:36.795Z,43.53
2022-09-06T13:38:55.681Z,43.41
2022-09-06T13:41:25.328Z,42.72
2022-09-06T13:44:17.377Z,42.86
2022-09-06T13:46:44.863Z,44.00
2022-09-06T13:49:11.778Z,42.77
2022-09-06T13:51:39.354Z,42.97
2022-09-06T13:54:13.413Z,42.73
2022-09-06T13:56:41.669Z,43.65
2022-09-06T13:59:11.792Z,43.07
2022-09-06T14:01:40.306Z,43.72
2022-09-06T14:04:07.319Z,43.78
2022-09-06T14:06:36.974Z,44.04
2022-09-06T14:09:08.247Z,44.10
2022-09-06T14:11:35.977Z,42.65
2022-09-06T14:14:02.711Z,42.53
2022-09-06T14:16:30.124Z,42.05
2022-09-06T14:18:56.932Z,43.73
2022-09-06T14:21:23.920Z,43.74
2022-09-06T14:23:51.662Z,43.00
2022-09-06T14:26:20.486Z,43.31
2022-09-06T14:28:47.360Z,43.17
2022-09-06T14:31:22.206Z,43.29
2022-09-06T14:33:49.157Z,40.60
2022-09-06T14:36:17.888Z,39.80
2022-09-06T14:38:45.897Z,40.16
2022-09-06T14:41:16.535Z,40.67
2022-09-06T14:43:44.467Z,41.00
2022-09-06T14:46:14.387Z,40.35
2022-09-06T14:48:42.662Z,41.24
2022-09-06T14:51:09.648Z,41.89
2022-09-06T14:53:41.329Z,41.89
2022-09-06T14:56:09.065Z,40.97
2022-09-06T14:58:37.558Z,41.44
2022-09-06T15:01:37.134Z,41.89
2022-09-06T15:04:06.549Z,41.15
2022-09-06T15:06:36.597Z,41.54
2022-09-06T15:09:04.429Z,42.59
2022-09-06T15:11:31.111Z,42.67
2022-09-06T15:13:58.540Z,42.63
2022-09-06T15:16:25.602Z,43.26
2022-09-06T15:18:52.388Z,42.21
2022-09-06T15:21:19.723Z,42.39
2022-09-06T15:23:46.441Z,41.56
2022-09-06T15:26:15.712Z,42.03
2022-09-06T15:28:46.585Z,42.82
2022-09-06T15:31:15.181Z,42.46
2022-09-06T15:33:45.533Z,42.10
2022-09-06T15:36:13.403Z,42.76
2022-09-06T15:38:43.256Z,43.86
2022-09-06T15:41:12.619Z,43.18
2022-09-06T15:43:42.709Z,42.33
2022-09-06T15:46:11.746Z,42.86
2022-09-06T15:48:44.372Z,43.33
2022-09-06T15:51:17.332Z,43.68
2022-09-06T15:53:47.965Z,44.12
2022-09-06T15:56:17.691Z,43.72
2022-09-06T15:58:46.881Z,44.08
2022-09-06T16:01:19.910Z,44.54
2022-09-06T16:04:04.138Z,45.17
2022-09-06T16:06:39.704Z,43.61
2022-09-06T16:09:14.193Z,43.38
2022-09-06T16:11:43.151Z,43.83
2022-09-06T16:14:14.334Z,43.60
2022-09-06T16:16:43.339Z,44.36
2022-09-06T16:19:12.381Z,43.97
2022-09-06T16:21:41.850Z,44.37
2022-09-06T16:24:11.362Z,44.18
2022-09-06T16:26:41.965Z,44.33
2022-09-06T16:29:09.920Z,44.21
2022-09-06T16:31:40.371Z,44.43
2022-09-06T16:34:09.056Z,45.00
2022-09-06T16:36:36.327Z,44.83
2022-09-06T16:39:03.762Z,44.71
2022-09-06T16:41:37.741Z,45.32
2022-09-06T16:44:04.615Z,45.08
2022-09-06T16:46:31.458Z,45.32
2022-09-06T16:49:03.256Z,45.70
2022-09-06T16:51:31.412Z,45.25
2022-09-06T16:53:59.346Z,44.23
2022-09-06T16:56:28.828Z,44.51
2022-09-06T16:58:57.715Z,44.31
2022-09-06T17:01:29.880Z,44.58
2022-09-06T17:03:57.472Z,44.17
2022-09-06T17:06:25.700Z,44.53
2022-09-06T17:08:52.421Z,45.29
2022-09-06T17:11:21.177Z,45.25
2022-09-06T17:13:49.873Z,44.98
2022-09-06T17:16:35.704Z,44.65
2022-09-06T17:19:02.886Z,44.05
2022-09-06T17:21:30.205Z,44.90
2022-09-06T17:23:59.860Z,45.10
2022-09-06T17:26:26.597Z,44.76
2022-09-06T17:28:53.466Z,46.08
2022-09-06T17:31:25.553Z,45.85
2022-09-06T17:33:53.783Z,46.43
2022-09-06T17:36:23.817Z,47.63
2022-09-06T17:38:53.712Z,47.05
2022-09-06T17:41:24.287Z,48.88
2022-09-06T17:43:53.776Z,50.98
2022-09-06T17:46:28.511Z,50.97
2022-09-06T17:48:56.383Z,52.70
2022-09-06T17:51:24.344Z,53.48
2022-09-06T17:53:52.124Z,53.56
2022-09-06T17:56:19.686Z,55.50
2022-09-06T17:59:01.172Z,55.61
2022-09-06T18:01:30.044Z,56.01
2022-09-06T18:03:57.314Z,57.00
2022-09-06T18:06:25.393Z,57.67
2022-09-06T18:08:54.196Z,58.01
2022-09-06T18:11:24.511Z,59.95
2022-09-06T18:14:09.049Z,59.68
2022-09-06T18:16:37.640Z,62.40
2022-09-06T18:19:06.187Z,63.16
2022-09-06T18:21:35.492Z,62.40
2022-09-06T18:24:02.847Z,62.54
2022-09-06T18:26:29.790Z,62.15
2022-09-06T18:28:56.562Z,62.65
2022-09-06T18:31:25.632Z,65.05
2022-09-06T18:33:52.571Z,66.22
2022-09-06T18:36:19.806Z,68.21
2022-09-06T18:38:47.066Z,67.00
2022-09-06T18:41:34.827Z,68.79
2022-09-06T18:44:05.746Z,68.64
2022-09-06T18:46:34.618Z,66.09
2022-09-06T18:49:01.515Z,66.31
2022-09-06T18:51:28.942Z,68.87
2022-09-06T18:53:57.414Z,69.95
2022-09-06T18:56:24.314Z,69.21
2022-09-06T18:58:54.877Z,68.44
2022-09-06T19:01:21.961Z,66.71
2022-09-06T19:03:48.741Z,67.09
2022-09-06T19:06:18.934Z,67.87
2022-09-06T19:08:46.733Z,71.35
2022-09-06T19:11:17.026Z,74.10
2022-09-06T19:13:44.854Z,74.51
2022-09-06T19:16:13.026Z,73.40
2022-09-06T19:18:40.176Z,71.94
2022-09-06T19:21:18.268Z,67.66
2022-09-06T19:23:46.981Z,67.18
2022-09-06T19:26:16.958Z,67.99
2022-09-06T19:29:01.229Z,68.94
2022-09-06T19:31:31.260Z,71.42
2022-09-06T19:33:58.612Z,73.44
2022-09-06T19:36:27.481Z,71.33
2022-09-06T19:39:04.015Z,74.25
2022-09-06T19:41:39.152Z,70.49
2022-09-06T19:44:08.479Z,71.22
2022-09-06T19:46:36.176Z,72.90
2022-09-06T19:49:03.382Z,75.09
2022-09-06T19:51:30.254Z,74.42
2022-09-06T19:53:58.178Z,72.69
2022-09-06T19:56:27.245Z,72.70
2022-09-06T19:58:55.642Z,73.08
2022-09-06T20:01:23.682Z,73.38
2022-09-06T20:03:50.645Z,77.50
2022-09-06T20:06:17.575Z,75.80
2022-09-06T20:08:44.433Z,77.28
2022-09-06T20:11:12.749Z,77.70
2022-09-06T20:13:39.798Z,78.32
2022-09-06T20:16:08.803Z,77.54
2022-09-06T20:18:36.223Z,77.98
2022-09-06T20:21:03.313Z,78.24
2022-09-06T20:23:31.397Z,77.34
2022-09-06T20:26:08.013Z,77.50
2022-09-06T20:28:35.322Z,75.85
2022-09-06T20:31:06.992Z,68.90
2022-09-06T20:33:34.264Z,67.72
2022-09-06T20:36:03.079Z,68.22
2022-09-06T20:38:30.942Z,70.46
2022-09-06T20:41:07.812Z,70.42
2022-09-06T20:43:36.718Z,70.40
2022-09-06T20:46:15.498Z,74.64
2022-09-06T20:48:44.932Z,80.05
2022-09-06T20:51:19.143Z,79.40
2022-09-06T20:53:53.430Z,82.99
2022-09-06T20:56:26.226Z,88.49
2022-09-06T20:58:55.407Z,97.94
2022-09-06T21:01:27.115Z,100.00
2022-09-06T21:03:56.141Z,100.00
2022-09-06T21:06:24.391Z,100.00
2022-09-06T21:08:51.459Z,100.00
2022-09-06T21:11:18.478Z,100.00
2022-09-06T21:13:51.761Z,100.00
2022-09-06T21:16:24.586Z,100.00
2022-09-06T21:18:57.073Z,100.00
2022-09-06T21:21:25.926Z,100.00
2022-09-06T21:23:54.836Z,100.00
2022-09-06T21:26:22.434Z,100.00
2022-09-06T21:28:50.215Z,100.00
2022-09-06T21:31:52.081Z,100.00
2022-09-06T21:34:19.006Z,100.00
2022-09-06T21:36:46.417Z,100.00
2022-09-06T21:39:13.437Z,100.00
2022-09-06T21:41:42.249Z,100.00
2022-09-06T21:44:09.411Z,100.00
2022-09-06T21:46:37.858Z,100.00
2022-09-06T21:49:13.627Z,100.00
2022-09-06T21:51:41.631Z,100.00
2022-09-06T21:54:08.664Z,100.00
2022-09-06T21:56:37.032Z,100.00
2022-09-06T21:59:04.919Z,100.00
2022-09-06T22:01:35.067Z,100.00
2022-09-06T22:04:02.444Z,100.00
2022-09-06T22:06:31.320Z,100.00
2022-09-06T22:09:00.257Z,100.00
2022-09-06T22:11:29.652Z,100.00
2022-09-06T22:14:04.258Z,100.00
2022-09-06T22:16:32.911Z,100.00
2022-09-06T22:18:59.781Z,100.00
2022-09-06T22:21:26.652Z,100.00
2022-09-06T22:23:56.159Z,100.00
2022-09-06T22:26:24.704Z,100.00
2022-09-06T22:28:56.527Z,100.00
2022-09-06T22:31:24.558Z,100.00
2022-09-06T22:33:51.581Z,100.00
2022-09-06T22:36:21.328Z,100.00
2022-09-06T22:38:48.189Z,100.00
2022-09-06T22:41:15.435Z,100.00
2022-09-06T22:43:42.335Z,100.00
2022-09-06T22:46:10.427Z,100.00
2022-09-06T22:48:37.469Z,100.00
2022-09-06T22:51:06.205Z,100.00
2022-09-06T22:53:35.361Z,100.00
2022-09-06T22:56:02.683Z,100.00
2022-09-06T22:58:29.666Z,100.00
2022-09-06T23:00:57.163Z,100.00
2022-09-06T23:03:24.139Z,100.00
2022-09-06T23:05:51.240Z,100.00
2022-09-06T23:08:18.078Z,100.00
2022-09-06T23:10:44.957Z,100.00
2022-09-06T23:13:11.762Z,100.00
2022-09-06T23:15:40.830Z,100.00
2022-09-06T23:18:08.509Z,100.00
2022-09-06T23:20:37.171Z,100.00
2022-09-06T23:23:04.803Z,100.00
2022-09-06T23:25:31.645Z,100.00
2022-09-06T23:27:59.767Z,100.00
2022-09-06T23:30:26.721Z,100.00
2022-09-06T23:32:53.487Z,100.00
2022-09-06T23:35:20.390Z,100.00
2022-09-06T23:37:50.101Z,100.00
2022-09-06T23:40:18.059Z,100.00
2022-09-06T23:42:45.473Z,100.00
2022-09-06T23:45:12.518Z,100.00
2022-09-06T23:47:39.522Z,100.00
2022-09-06T23:50:07.352Z,100.00
2022-09-06T23:52:34.132Z,100.00
2022-09-06T23:55:01.177Z,100.00
2022-09-06T23:57:27.923Z,100.00
2022-09-06T23:59:54.715Z,100.00
